Time;durP1;ratioP1;P1;durP2;ratioP2;P2;SDS_P1;SDS_P2;PMS_P1;PMS_P2;Temp;Humidity;BMP_temperature;BMP_pressure;BME280_temperature;BME280_humidity;BME280_pressure;Samples;Min_cycle;Max_cycle;Signal;HPM_P1;HPM_P2
2021/06/06 00:00:57;;;;;;;60.58;39.30;;;14.90;94.50;;;;;;5046060;28;20077;-49
2021/06/06 00:03:28;;;;;;;64.90;39.92;;;14.80;94.50;;;;;;5046469;28;20044;-48
2021/06/06 00:06:09;;;;;;;63.80;40.00;;;14.80;94.60;;;;;;5049262;28;20052;-48
2021/06/06 00:08:35;;;;;;;63.63;40.17;;;14.80;94.70;;;;;;5043121;28;20079;-48
2021/06/06 00:11:16;;;;;;;64.07;40.78;;;14.80;94.60;;;;;;5048796;28;20116;-49
2021/06/06 00:13:43;;;;;;;62.88;40.97;;;14.80;94.80;;;;;;5043896;28;20448;-48
2021/06/06 00:16:12;;;;;;;62.40;40.53;;;14.80;94.50;;;;;;5032975;28;20041;-48
2021/06/06 00:18:39;;;;;;;57.92;38.33;;;14.80;94.40;;;;;;5053774;28;20413;-49
2021/06/06 00:21:05;;;;;;;56.50;38.55;;;14.80;94.40;;;;;;5053327;28;20076;-49
2021/06/06 00:23:32;;;;;;;60.40;40.25;;;14.90;94.30;;;;;;5046069;28;20095;-48
2021/06/06 00:26:03;;;;;;;67.65;40.92;;;14.80;94.20;;;;;;5049222;28;20060;-52
2021/06/06 00:28:30;;;;;;;59.42;39.38;;;14.80;94.30;;;;;;5043671;28;20564;-50
2021/06/06 00:31:00;;;;;;;59.25;37.70;;;14.80;94.30;;;;;;5049776;28;20540;-48
2021/06/06 00:33:27;;;;;;;69.53;40.85;;;14.80;94.40;;;;;;5050761;28;20076;-49
2021/06/06 00:35:53;;;;;;;59.30;38.35;;;14.80;94.40;;;;;;5034353;28;20323;-48
2021/06/06 00:38:19;;;;;;;63.00;38.42;;;14.70;94.40;;;;;;5049458;28;20322;-49
2021/06/06 00:40:45;;;;;;;62.83;37.90;;;14.70;94.60;;;;;;5048988;28;20116;-51
2021/06/06 00:43:11;;;;;;;60.10;37.70;;;14.70;94.30;;;;;;5048210;28;20477;-48
2021/06/06 00:45:41;;;;;;;58.92;37.50;;;14.70;94.40;;;;;;5039680;28;20040;-48
2021/06/06 00:48:08;;;;;;;50.85;37.30;;;14.70;94.40;;;;;;5046714;28;20455;-48
2021/06/06 00:50:41;;;;;;;54.20;36.65;;;14.70;94.40;;;;;;5052514;28;20041;-51
2021/06/06 00:53:12;;;;;;;51.83;36.08;;;14.70;94.40;;;;;;5049545;28;20049;-48
2021/06/06 00:55:39;;;;;;;53.13;36.17;;;14.70;94.40;;;;;;5050220;28;20098;-49
2021/06/06 00:58:11;;;;;;;53.60;35.83;;;14.70;94.40;;;;;;5050551;28;20124;-48
2021/06/06 01:00:43;;;;;;;51.28;35.30;;;14.70;94.30;;;;;;5051697;28;20128;-48
2021/06/06 01:03:10;;;;;;;49.33;34.47;;;14.70;94.30;;;;;;5048278;28;20091;-49
2021/06/06 01:06:05;;;;;;;52.50;34.88;;;14.70;94.30;;;;;;5044499;28;20476;-48
2021/06/06 01:08:33;;;;;;;50.42;33.50;;;14.70;94.20;;;;;;5021342;28;20045;-48
2021/06/06 01:11:09;;;;;;;50.70;33.53;;;14.70;94.10;;;;;;5042091;28;20041;-48
2021/06/06 01:13:45;;;;;;;51.25;34.10;;;14.70;94.10;;;;;;5044707;28;20050;-50
2021/06/06 01:16:19;;;;;;;47.65;34.03;;;14.70;94.10;;;;;;5047772;28;20055;-51
2021/06/06 01:18:50;;;;;;;50.22;34.63;;;14.70;94.00;;;;;;5050533;28;20489;-49
2021/06/06 01:21:47;;;;;;;49.03;33.50;;;14.70;94.00;;;;;;5045559;28;20118;-49
2021/06/06 01:24:29;;;;;;;48.38;33.88;;;14.70;94.10;;;;;;5047570;28;20099;-51
2021/06/06 01:27:04;;;;;;;49.22;33.85;;;14.70;94.10;;;;;;5051672;28;20566;-48
2021/06/06 01:30:08;;;;;;;47.17;33.15;;;14.80;94.10;;;;;;5049599;28;20037;-49
2021/06/06 01:32:52;;;;;;;47.90;33.72;;;14.80;94.10;;;;;;4968719;28;20097;-49
2021/06/06 01:35:32;;;;;;;45.92;33.05;;;14.80;94.10;;;;;;4973152;28;20125;-49
2021/06/06 01:38:13;;;;;;;50.88;33.70;;;14.70;94.00;;;;;;5014267;28;20068;-48
2021/06/06 01:40:41;;;;;;;49.03;34.20;;;14.80;94.00;;;;;;5051377;28;20519;-51
2021/06/06 01:43:13;;;;;;;48.33;33.95;;;14.80;94.00;;;;;;5049926;28;20045;-51
2021/06/06 01:45:51;;;;;;;47.05;32.92;;;14.80;94.10;;;;;;5050660;28;20489;-48
2021/06/06 01:48:17;;;;;;;44.60;32.88;;;14.80;94.10;;;;;;5030316;28;20103;-51
2021/06/06 01:50:53;;;;;;;46.08;32.55;;;14.80;94.00;;;;;;5034450;28;20048;-48
2021/06/06 01:53:21;;;;;;;45.42;32.97;;;14.70;94.10;;;;;;5050504;28;20041;-49
2021/06/06 01:55:51;;;;;;;48.05;33.72;;;14.80;94.00;;;;;;5050894;28;20033;-49
2021/06/06 01:58:18;;;;;;;46.72;32.08;;;14.80;94.10;;;;;;5029279;28;20067;-49
2021/06/06 02:01:07;;;;;;;43.10;31.80;;;14.70;94.00;;;;;;5037667;28;20048;-49
2021/06/06 02:03:34;;;;;;;50.05;33.42;;;14.70;94.00;;;;;;5041466;28;20102;-51
2021/06/06 02:06:01;;;;;;;41.30;31.98;;;14.70;94.10;;;;;;5023980;28;20047;-49
2021/06/06 02:08:32;;;;;;;49.35;32.63;;;14.70;94.10;;;;;;5045615;28;20098;-48
2021/06/06 02:11:05;;;;;;;44.33;32.03;;;14.70;94.10;;;;;;5037591;28;20048;-48
2021/06/06 02:13:42;;;;;;;41.75;31.95;;;14.70;94.10;;;;;;5037328;28;20056;-49
2021/06/06 02:16:10;;;;;;;43.65;30.92;;;14.70;94.20;;;;;;5035666;28;20040;-51
2021/06/06 02:18:36;;;;;;;47.83;32.40;;;14.70;94.00;;;;;;5042320;28;20044;-49
2021/06/06 02:21:02;;;;;;;42.05;31.23;;;14.70;93.90;;;;;;5049760;28;20041;-48
2021/06/06 02:23:32;;;;;;;44.90;31.50;;;14.70;93.90;;;;;;5049908;28;20048;-52
2021/06/06 02:26:29;;;;;;;38.10;30.45;;;14.70;93.90;;;;;;5044694;28;20045;-48
2021/06/06 02:29:15;;;;;;;44.95;31.25;;;14.70;93.80;;;;;;5032634;28;20061;-54
2021/06/06 02:31:56;;;;;;;40.95;30.98;;;14.70;93.90;;;;;;5014644;28;20037;-49
2021/06/06 02:34:40;;;;;;;43.28;32.00;;;14.70;93.90;;;;;;5045883;28;20048;-48
2021/06/06 02:37:16;;;;;;;41.08;30.20;;;14.70;93.90;;;;;;5040592;28;20126;-48
2021/06/06 02:39:47;;;;;;;41.28;31.33;;;14.70;93.90;;;;;;5048413;28;20186;-49
2021/06/06 02:42:23;;;;;;;39.53;29.83;;;14.70;93.90;;;;;;5048980;28;20071;-49
2021/06/06 02:44:56;;;;;;;41.20;30.33;;;14.70;93.80;;;;;;5047948;28;20087;-48
2021/06/06 02:47:26;;;;;;;40.72;29.90;;;14.70;93.80;;;;;;5050574;28;20045;-51
2021/06/06 02:49:54;;;;;;;42.70;31.88;;;14.70;93.80;;;;;;5046412;28;20037;-49
2021/06/06 02:52:39;;;;;;;41.90;31.60;;;14.70;93.80;;;;;;5049223;28;20045;-50
2021/06/06 02:55:15;;;;;;;42.85;29.52;;;14.70;93.90;;;;;;5041759;28;20038;-52
2021/06/06 02:57:46;;;;;;;41.60;30.13;;;14.70;93.80;;;;;;5050689;28;20049;-48
2021/06/06 03:00:18;;;;;;;40.38;31.55;;;14.70;93.90;;;;;;5043909;28;20519;-50
2021/06/06 03:02:50;;;;;;;42.28;32.15;;;14.70;93.90;;;;;;5028866;28;20041;-47
2021/06/06 03:05:19;;;;;;;43.72;33.10;;;14.70;94.00;;;;;;5042025;28;20037;-48
2021/06/06 03:07:49;;;;;;;44.70;32.33;;;14.70;94.00;;;;;;5045090;28;20493;-49
2021/06/06 03:10:18;;;;;;;45.83;31.63;;;14.70;94.00;;;;;;5037376;28;20040;-51
2021/06/06 03:12:46;;;;;;;45.58;31.70;;;14.70;94.00;;;;;;5050979;28;20045;-48
2021/06/06 03:15:14;;;;;;;42.95;31.08;;;14.70;94.10;;;;;;5050141;28;20136;-51
2021/06/06 03:17:45;;;;;;;42.63;30.73;;;14.70;94.20;;;;;;5032551;28;20493;-49
2021/06/06 03:20:15;;;;;;;44.92;31.55;;;14.70;94.10;;;;;;5046922;28;20059;-51
2021/06/06 03:22:44;;;;;;;48.58;32.22;;;14.70;94.10;;;;;;5041751;28;20432;-51
2021/06/06 03:25:31;;;;;;;48.28;33.92;;;14.70;94.10;;;;;;5043426;28;20046;-49
2021/06/06 03:27:58;;;;;;;49.15;32.53;;;14.70;94.20;;;;;;5019436;28;20106;-50
2021/06/06 03:30:49;;;;;;;44.70;32.70;;;14.70;94.20;;;;;;5048729;28;20049;-49
2021/06/06 03:33:18;;;;;;;45.75;32.08;;;14.70;94.30;;;;;;5048837;28;20043;-52
2021/06/06 03:35:44;;;;;;;47.95;33.38;;;14.70;94.30;;;;;;5045775;28;20037;-51
2021/06/06 03:38:11;;;;;;;48.35;33.53;;;14.70;94.30;;;;;;5049905;28;20472;-48
2021/06/06 03:40:41;;;;;;;47.70;32.50;;;14.70;94.40;;;;;;5049787;28;20059;-48
2021/06/06 03:43:11;;;;;;;46.33;33.28;;;14.70;94.40;;;;;;5051001;28;20037;-48
2021/06/06 03:45:37;;;;;;;49.08;34.50;;;14.70;94.40;;;;;;5052750;28;20041;-48
2021/06/06 03:48:03;;;;;;;49.95;34.63;;;14.70;94.40;;;;;;5053109;28;20040;-48
2021/06/06 03:50:31;;;;;;;52.03;34.50;;;14.80;94.40;;;;;;5053084;28;20578;-48
2021/06/06 03:52:57;;;;;;;51.30;33.92;;;14.80;94.40;;;;;;5051221;28;20037;-48
2021/06/06 03:55:23;;;;;;;50.20;32.88;;;14.80;94.40;;;;;;5047154;28;20048;-48
2021/06/06 03:57:50;;;;;;;52.67;33.53;;;14.70;94.50;;;;;;5052588;28;20044;-49
2021/06/06 04:00:24;;;;;;;51.47;33.53;;;14.80;94.50;;;;;;5052877;28;20115;-50
2021/06/06 04:02:50;;;;;;;48.90;32.00;;;14.80;94.50;;;;;;5053374;28;20102;-51
2021/06/06 04:05:16;;;;;;;48.67;33.10;;;14.80;94.50;;;;;;5053032;28;20481;-48
2021/06/06 04:07:42;;;;;;;52.92;31.92;;;14.80;94.50;;;;;;5047822;28;20042;-49
2021/06/06 04:10:08;;;;;;;52.90;31.17;;;14.80;94.40;;;;;;5053290;28;20417;-48
2021/06/06 04:12:34;;;;;;;51.00;32.35;;;14.80;94.40;;;;;;5053172;28;20424;-50
2021/06/06 04:14:59;;;;;;;50.33;31.65;;;14.80;94.40;;;;;;5051537;28;20033;-48
2021/06/06 04:17:25;;;;;;;53.55;32.20;;;14.80;94.40;;;;;;5043228;28;20053;-48
2021/06/06 04:19:53;;;;;;;49.67;32.17;;;14.80;94.40;;;;;;5048369;28;20465;-48
2021/06/06 04:22:19;;;;;;;52.80;31.63;;;14.90;94.50;;;;;;5011342;28;20049;-48
2021/06/06 04:24:45;;;;;;;49.20;31.17;;;14.90;94.50;;;;;;5052137;28;20556;-50
2021/06/06 04:27:11;;;;;;;45.53;30.70;;;14.90;94.50;;;;;;5046257;28;20041;-51
2021/06/06 04:29:36;;;;;;;46.05;31.33;;;14.90;94.50;;;;;;5052869;28;20393;-49
2021/06/06 04:32:04;;;;;;;48.20;30.42;;;14.90;94.40;;;;;;5048621;28;20049;-50
2021/06/06 04:34:31;;;;;;;47.53;29.55;;;14.90;94.50;;;;;;5052228;28;20041;-48
2021/06/06 04:36:57;;;;;;;48.08;31.20;;;14.90;94.40;;;;;;5043682;28;20083;-48
2021/06/06 04:39:24;;;;;;;49.75;31.08;;;14.90;94.40;;;;;;5045266;28;20128;-49
2021/06/06 04:41:50;;;;;;;44.67;30.20;;;14.90;94.30;;;;;;5051446;28;20037;-48
2021/06/06 04:44:16;;;;;;;46.58;29.15;;;14.90;94.30;;;;;;5051917;28;20043;-51
2021/06/06 04:46:41;;;;;;;47.88;29.67;;;14.90;94.40;;;;;;5050331;28;20107;-48
2021/06/06 04:49:07;;;;;;;46.80;29.42;;;14.90;94.30;;;;;;5045064;28;20045;-49
2021/06/06 04:51:33;;;;;;;44.17;28.95;;;14.90;94.30;;;;;;5051870;28;20072;-51
2021/06/06 04:53:59;;;;;;;46.50;28.00;;;14.80;94.30;;;;;;5033147;28;20045;-50
2021/06/06 04:56:27;;;;;;;45.05;27.75;;;14.80;94.20;;;;;;5051244;28;20045;-50
2021/06/06 04:58:54;;;;;;;43.28;27.95;;;14.90;94.30;;;;;;5051527;28;20485;-50
2021/06/06 05:01:20;;;;;;;42.80;27.55;;;14.90;94.10;;;;;;5052297;28;20041;-48
2021/06/06 05:03:48;;;;;;;43.28;26.65;;;14.90;94.20;;;;;;5048443;28;20049;-51
2021/06/06 05:06:15;;;;;;;44.20;26.52;;;14.90;94.10;;;;;;5047247;28;20040;-51
2021/06/06 05:08:40;;;;;;;40.92;25.63;;;14.90;94.10;;;;;;5030410;28;20064;-51
2021/06/06 05:11:07;;;;;;;40.95;26.15;;;14.90;94.10;;;;;;5051118;28;20160;-50
2021/06/06 05:13:32;;;;;;;44.75;26.83;;;14.90;94.10;;;;;;5052963;28;20045;-50
2021/06/06 05:15:58;;;;;;;42.50;26.20;;;14.90;94.00;;;;;;5046869;28;20041;-51
2021/06/06 05:18:25;;;;;;;40.42;26.42;;;14.90;94.00;;;;;;5052075;28;20520;-52
2021/06/06 05:20:55;;;;;;;39.13;24.77;;;14.80;93.90;;;;;;5051784;28;20424;-50
2021/06/06 05:23:22;;;;;;;37.05;24.13;;;14.80;94.00;;;;;;5051288;28;20128;-51
2021/06/06 05:25:48;;;;;;;31.67;22.58;;;14.80;94.00;;;;;;5051549;28;20056;-52
2021/06/06 05:28:19;;;;;;;33.63;22.70;;;14.80;94.00;;;;;;5049988;28;20048;-52
2021/06/06 05:30:46;;;;;;;34.33;22.70;;;14.80;94.00;;;;;;5050698;28;20044;-52
2021/06/06 05:33:12;;;;;;;34.90;22.42;;;14.80;93.90;;;;;;5046568;28;20053;-51
2021/06/06 05:35:56;;;;;;;34.40;22.92;;;14.90;94.00;;;;;;5044684;28;20059;-52
2021/06/06 05:38:24;;;;;;;33.30;21.20;;;14.90;94.00;;;;;;5043563;28;20413;-50
2021/06/06 05:40:51;;;;;;;32.03;21.80;;;14.80;94.00;;;;;;5038772;28;20509;-49
2021/06/06 05:43:18;;;;;;;31.95;21.42;;;14.80;94.00;;;;;;5015899;28;20033;-51
2021/06/06 05:45:45;;;;;;;30.25;20.75;;;14.80;94.00;;;;;;5037557;28;20497;-53
2021/06/06 05:48:11;;;;;;;30.33;20.95;;;14.80;94.10;;;;;;5051300;28;20040;-52
2021/06/06 05:50:42;;;;;;;27.92;19.23;;;14.80;94.00;;;;;;5039551;28;20041;-52
2021/06/06 05:53:09;;;;;;;31.13;20.83;;;14.80;94.00;;;;;;5050965;28;20576;-50
2021/06/06 05:55:35;;;;;;;33.63;20.20;;;14.80;94.00;;;;;;5045548;28;20156;-52
2021/06/06 05:58:01;;;;;;;29.05;20.20;;;14.80;94.00;;;;;;5047425;28;20095;-50
2021/06/06 06:00:47;;;;;;;28.17;18.60;;;14.80;94.00;;;;;;5049905;28;20517;-50
2021/06/06 06:03:13;;;;;;;29.23;19.23;;;14.90;94.00;;;;;;5045812;28;20037;-49
2021/06/06 06:05:39;;;;;;;27.88;18.77;;;14.90;94.00;;;;;;5047310;28;20041;-51
2021/06/06 06:08:13;;;;;;;28.50;18.88;;;14.90;93.90;;;;;;5046639;28;20110;-52
2021/06/06 06:10:39;;;;;;;31.05;18.88;;;14.90;93.80;;;;;;5048927;28;20067;-48
2021/06/06 06:13:05;;;;;;;27.73;17.58;;;15.00;93.80;;;;;;5048486;28;20041;-51
2021/06/06 06:15:30;;;;;;;22.73;15.23;;;15.00;93.90;;;;;;5050578;28;20071;-51
2021/06/06 06:17:56;;;;;;;21.65;13.10;;;15.00;93.90;;;;;;5048704;28;20102;-51
2021/06/06 06:20:22;;;;;;;23.75;14.52;;;15.00;93.80;;;;;;5045479;28;20413;-51
2021/06/06 06:22:48;;;;;;;20.08;13.45;;;15.00;93.70;;;;;;5050679;28;20052;-51
2021/06/06 06:25:16;;;;;;;23.55;14.93;;;15.00;93.70;;;;;;5047050;28;20036;-49
2021/06/06 06:27:42;;;;;;;24.05;14.10;;;15.10;93.80;;;;;;5046455;28;20052;-51
2021/06/06 06:30:12;;;;;;;20.23;13.77;;;15.10;93.80;;;;;;5046197;28;20053;-49
2021/06/06 06:32:38;;;;;;;23.48;15.23;;;15.10;93.70;;;;;;5050904;28;20041;-50
2021/06/06 06:35:05;;;;;;;28.70;17.92;;;15.00;93.70;;;;;;5048468;28;20060;-48
2021/06/06 06:37:31;;;;;;;27.38;17.80;;;15.00;93.80;;;;;;5031176;28;20066;-49
2021/06/06 06:39:57;;;;;;;31.83;19.33;;;15.00;93.80;;;;;;5048446;28;20567;-50
2021/06/06 06:42:23;;;;;;;31.98;19.30;;;15.00;93.80;;;;;;5048451;28;20512;-48
2021/06/06 06:44:48;;;;;;;35.35;20.38;;;15.00;93.80;;;;;;5026763;28;20052;-49
2021/06/06 06:47:14;;;;;;;33.63;21.88;;;15.00;93.90;;;;;;5037892;28;20095;-48
2021/06/06 06:49:41;;;;;;;38.92;23.13;;;14.90;93.90;;;;;;5029975;28;20037;-51
2021/06/06 06:52:07;;;;;;;35.97;21.55;;;14.90;94.00;;;;;;5047072;28;20087;-49
2021/06/06 06:54:33;;;;;;;31.75;20.02;;;15.00;94.10;;;;;;5042496;28;20028;-51
2021/06/06 06:56:59;;;;;;;29.95;21.20;;;14.90;94.00;;;;;;5033227;28;20051;-53
2021/06/06 06:59:27;;;;;;;35.80;22.85;;;14.90;93.90;;;;;;5027477;28;20485;-52
2021/06/06 07:01:58;;;;;;;32.72;22.45;;;15.00;94.00;;;;;;5037292;28;20136;-48
2021/06/06 07:04:24;;;;;;;32.78;21.35;;;15.00;93.90;;;;;;5048868;28;20049;-51
2021/06/06 07:06:52;;;;;;;30.15;21.08;;;14.90;93.80;;;;;;5033265;28;20045;-50
2021/06/06 07:09:20;;;;;;;35.28;23.05;;;15.00;93.80;;;;;;5050191;28;20544;-50
2021/06/06 07:11:46;;;;;;;38.67;24.67;;;15.00;93.80;;;;;;5047975;28;20110;-53
2021/06/06 07:14:12;;;;;;;39.22;24.67;;;14.90;93.70;;;;;;5045148;28;20096;-50
2021/06/06 07:16:38;;;;;;;39.70;25.48;;;15.00;93.80;;;;;;5051104;28;20123;-51
2021/06/06 07:19:06;;;;;;;41.45;24.98;;;14.90;93.80;;;;;;5037040;28;20114;-49
2021/06/06 07:21:32;;;;;;;38.50;25.05;;;15.00;93.80;;;;;;5054018;28;20528;-51
2021/06/06 07:23:58;;;;;;;35.22;24.35;;;15.00;93.70;;;;;;5054674;28;20083;-52
2021/06/06 07:26:30;;;;;;;37.25;25.15;;;15.00;93.70;;;;;;5053503;28;20547;-51
2021/06/06 07:29:24;;;;;;;36.78;25.02;;;15.00;93.50;;;;;;5039104;28;20052;-48
2021/06/06 07:31:54;;;;;;;36.72;23.20;;;15.10;93.30;;;;;;5050715;28;20093;-53
2021/06/06 07:34:20;;;;;;;37.15;24.65;;;15.10;93.30;;;;;;5046421;28;20036;-50
2021/06/06 07:36:46;;;;;;;36.72;24.75;;;15.10;93.40;;;;;;5032158;28;20525;-53
2021/06/06 07:39:32;;;;;;;39.45;24.02;;;15.10;93.40;;;;;;5029871;28;20051;-51
2021/06/06 07:41:59;;;;;;;35.70;23.25;;;15.10;93.40;;;;;;5045918;28;20130;-52
2021/06/06 07:44:25;;;;;;;38.30;25.33;;;15.10;93.30;;;;;;5050608;28;20437;-53
2021/06/06 07:46:54;;;;;;;32.88;21.52;;;15.20;93.40;;;;;;5046280;28;20045;-49
2021/06/06 07:49:21;;;;;;;29.42;21.10;;;15.20;93.30;;;;;;5048458;28;20036;-52
2021/06/06 07:51:47;;;;;;;29.42;19.90;;;15.20;93.30;;;;;;5051056;28;20207;-49
2021/06/06 07:54:13;;;;;;;32.97;20.73;;;15.30;92.80;;;;;;5050603;28;20045;-52
2021/06/06 07:56:39;;;;;;;30.88;19.80;;;15.30;92.90;;;;;;5049388;28;20048;-50
2021/06/06 07:59:05;;;;;;;26.25;19.15;;;15.20;93.10;;;;;;5017526;28;20416;-52
2021/06/06 08:01:30;;;;;;;26.45;18.35;;;15.30;93.10;;;;;;5049951;28;20094;-50
2021/06/06 08:03:56;;;;;;;26.65;18.35;;;15.20;93.10;;;;;;5050642;28;21126;-52
2021/06/06 08:06:22;;;;;;;28.67;18.85;;;15.30;93.10;;;;;;5052132;28;20121;-50
2021/06/06 08:08:48;;;;;;;26.13;17.83;;;15.30;93.10;;;;;;5050912;28;20501;-52
2021/06/06 08:11:14;;;;;;;24.10;16.98;;;15.20;93.20;;;;;;5049317;28;20111;-51
2021/06/06 08:13:40;;;;;;;22.95;16.13;;;15.20;93.20;;;;;;5053260;28;20497;-52
2021/06/06 08:16:08;;;;;;;23.15;16.08;;;15.20;93.20;;;;;;5052593;28;20047;-53
2021/06/06 08:18:37;;;;;;;25.45;16.85;;;15.20;93.20;;;;;;5046689;28;20474;-52
2021/06/06 08:21:06;;;;;;;24.33;16.35;;;15.20;93.10;;;;;;5047529;28;20072;-52
2021/06/06 08:23:32;;;;;;;23.98;15.90;;;15.20;93.40;;;;;;5047488;28;20493;-50
2021/06/06 08:25:59;;;;;;;22.95;15.45;;;15.30;93.50;;;;;;5050166;28;20037;-52
2021/06/06 08:28:25;;;;;;;18.95;13.80;;;15.30;93.40;;;;;;5048303;28;20124;-52
2021/06/06 08:31:00;;;;;;;20.83;14.18;;;15.20;93.60;;;;;;5049756;28;20116;-52
2021/06/06 08:33:27;;;;;;;20.52;14.27;;;15.30;93.40;;;;;;5051792;28;20045;-50
2021/06/06 08:35:56;;;;;;;23.25;14.70;;;15.30;93.40;;;;;;5045694;28;20052;-50
2021/06/06 08:38:27;;;;;;;22.83;14.98;;;15.30;93.40;;;;;;5045158;28;20053;-53
2021/06/06 08:41:25;;;;;;;23.48;14.48;;;15.20;93.30;;;;;;5043112;28;20040;-50
2021/06/06 08:43:58;;;;;;;24.67;15.27;;;15.30;93.30;;;;;;5046279;28;20045;-53
2021/06/06 08:46:25;;;;;;;23.05;14.73;;;15.30;93.40;;;;;;5050407;28;20375;-51
2021/06/06 08:48:52;;;;;;;22.70;13.85;;;15.20;93.40;;;;;;5050445;28;20401;-51
2021/06/06 08:51:21;;;;;;;23.23;15.30;;;15.30;93.40;;;;;;5045133;28;20051;-51
2021/06/06 08:54:13;;;;;;;23.30;15.32;;;15.30;93.40;;;;;;5016799;28;20041;-51
2021/06/06 08:56:38;;;;;;;23.90;15.73;;;15.30;93.40;;;;;;5010405;28;20712;-49
2021/06/06 08:59:12;;;;;;;24.73;16.15;;;15.30;93.20;;;;;;5050844;28;20041;-51
2021/06/06 09:01:52;;;;;;;26.38;14.95;;;15.30;93.20;;;;;;5052413;28;20404;-49
2021/06/06 09:04:31;;;;;;;26.35;15.98;;;15.30;93.30;;;;;;5046032;28;20049;-50
2021/06/06 09:07:25;;;;;;;26.63;15.82;;;15.40;92.80;;;;;;5026653;28;20179;-52
2021/06/06 09:09:51;;;;;;;28.83;16.50;;;15.40;92.80;;;;;;5043426;28;20033;-50
2021/06/06 09:12:22;;;;;;;24.15;16.20;;;15.30;92.80;;;;;;5049202;28;20055;-53
2021/06/06 09:14:49;;;;;;;24.80;15.27;;;15.30;92.90;;;;;;5049246;28;20064;-51
2021/06/06 09:17:18;;;;;;;25.80;16.92;;;15.30;92.90;;;;;;5044734;28;20129;-51
2021/06/06 09:19:47;;;;;;;25.40;16.33;;;15.30;92.80;;;;;;5043654;28;20041;-54
2021/06/06 09:22:14;;;;;;;27.92;16.98;;;15.30;92.80;;;;;;5033497;28;20044;-51
2021/06/06 09:24:48;;;;;;;22.95;15.80;;;15.30;93.00;;;;;;5048213;28;20116;-49
2021/06/06 09:27:22;;;;;;;26.98;17.02;;;15.30;93.00;;;;;;5029633;28;20041;-53
2021/06/06 09:30:14;;;;;;;28.77;17.58;;;15.30;93.00;;;;;;5047298;28;20036;-52
2021/06/06 09:32:42;;;;;;;31.10;18.00;;;15.30;93.00;;;;;;5039659;28;20029;-53
2021/06/06 09:35:30;;;;;;;26.83;17.33;;;15.40;93.00;;;;;;5046848;28;20043;-52
2021/06/06 09:38:33;;;;;;;23.92;15.93;;;15.40;92.90;;;;;;5051747;28;20134;-52
2021/06/06 09:41:19;;;;;;;23.30;16.92;;;15.40;92.90;;;;;;5047654;28;20063;-50
2021/06/06 09:44:06;;;;;;;24.27;16.85;;;15.40;93.00;;;;;;5049922;28;20043;-50
2021/06/06 09:46:37;;;;;;;26.90;16.67;;;15.50;93.00;;;;;;5033231;28;20051;-52
2021/06/06 09:49:31;;;;;;;27.95;17.85;;;15.50;93.00;;;;;;5051637;28;20187;-51
2021/06/06 09:52:25;;;;;;;28.25;18.25;;;15.60;93.10;;;;;;5051298;28;20044;-49
2021/06/06 09:54:57;;;;;;;26.48;16.92;;;15.60;93.00;;;;;;5037453;28;20056;-53
2021/06/06 09:57:37;;;;;;;27.45;18.00;;;15.60;92.90;;;;;;5051353;28;20067;-52
2021/06/06 10:00:18;;;;;;;23.52;17.00;;;15.60;92.80;;;;;;5051368;28;20099;-52
2021/06/06 10:02:51;;;;;;;26.65;17.05;;;15.60;92.80;;;;;;5049671;28;20041;-53
2021/06/06 10:05:37;;;;;;;25.40;15.93;;;15.60;92.60;;;;;;5050950;28;20122;-50
2021/06/06 10:08:16;;;;;;;24.95;16.30;;;15.60;92.60;;;;;;5077499;22;20067;-49
2021/06/06 10:10:47;;;;;;;26.02;18.02;;;15.60;92.80;;;;;;5067348;28;20507;-53
2021/06/06 10:13:18;;;;;;;27.63;17.45;;;15.60;92.60;;;;;;5043144;28;20033;-50
2021/06/06 10:15:51;;;;;;;28.33;17.08;;;15.70;92.70;;;;;;5069252;28;20469;-53
2021/06/06 10:18:26;;;;;;;27.67;17.30;;;15.70;92.80;;;;;;5055929;28;20156;-53
2021/06/06 10:20:59;;;;;;;26.67;18.33;;;15.70;92.80;;;;;;5028204;28;20140;-52
2021/06/06 10:23:32;;;;;;;24.05;17.10;;;15.70;92.80;;;;;;5050803;28;20033;-53
2021/06/06 10:26:05;;;;;;;30.58;17.67;;;15.70;92.90;;;;;;5037203;28;20608;-50
2021/06/06 10:28:41;;;;;;;26.83;18.65;;;15.70;92.90;;;;;;5048516;28;20056;-52
2021/06/06 10:31:29;;;;;;;28.83;18.38;;;15.70;92.80;;;;;;5033871;28;20040;-53
2021/06/06 10:34:24;;;;;;;25.25;17.15;;;15.70;92.80;;;;;;5032705;28;20051;-54
2021/06/06 10:36:49;;;;;;;28.52;18.00;;;15.70;92.80;;;;;;5030352;28;20037;-54
2021/06/06 10:39:24;;;;;;;23.25;16.35;;;15.80;92.80;;;;;;5049114;28;20115;-54
2021/06/06 10:42:09;;;;;;;24.35;15.70;;;15.80;92.70;;;;;;5030178;28;20049;-53
2021/06/06 10:44:57;;;;;;;23.95;16.63;;;15.80;92.60;;;;;;5047830;28;20040;-51
2021/06/06 10:47:41;;;;;;;30.50;18.42;;;15.80;92.60;;;;;;5036102;28;20043;-54
2021/06/06 10:50:29;;;;;;;27.88;18.10;;;15.90;92.60;;;;;;5028488;28;20044;-55
2021/06/06 10:53:26;;;;;;;26.40;17.95;;;15.90;92.70;;;;;;5033916;28;20041;-51
2021/06/06 10:55:59;;;;;;;25.95;17.38;;;15.90;92.70;;;;;;5031003;28;20041;-51
2021/06/06 10:58:36;;;;;;;29.73;17.52;;;15.90;92.60;;;;;;5050747;28;20478;-55
2021/06/06 11:01:27;;;;;;;28.60;17.70;;;15.90;92.40;;;;;;5050975;28;20101;-53
2021/06/06 11:04:08;;;;;;;26.48;18.20;;;15.90;92.40;;;;;;5034952;28;20128;-55
2021/06/06 11:06:37;;;;;;;28.83;18.20;;;15.90;92.20;;;;;;5049503;28;20099;-53
2021/06/06 11:09:06;;;;;;;27.27;18.13;;;15.90;92.30;;;;;;5050463;28;20083;-52
2021/06/06 11:11:38;;;;;;;28.77;18.00;;;15.90;92.20;;;;;;5025739;28;20095;-54
2021/06/06 11:14:10;;;;;;;30.35;20.05;;;16.00;92.20;;;;;;5044262;28;20037;-51
2021/06/06 11:16:49;;;;;;;28.70;19.08;;;16.00;92.30;;;;;;5043659;28;20038;-51
2021/06/06 11:19:18;;;;;;;32.78;18.85;;;16.00;92.30;;;;;;5025015;28;20029;-49
2021/06/06 11:21:51;;;;;;;32.38;18.80;;;16.00;92.10;;;;;;5056505;28;20136;-53
2021/06/06 11:24:22;;;;;;;31.00;20.33;;;16.00;91.90;;;;;;5028458;28;20057;-53
2021/06/06 11:27:06;;;;;;;29.33;19.98;;;16.00;92.00;;;;;;5047461;28;20080;-53
2021/06/06 11:29:43;;;;;;;27.95;18.38;;;15.90;92.00;;;;;;5031562;28;20478;-54
2021/06/06 11:32:18;;;;;;;28.33;18.13;;;16.00;91.60;;;;;;5003559;28;20049;-53
2021/06/06 11:35:09;;;;;;;30.95;19.02;;;15.90;91.80;;;;;;5044802;28;20041;-54
2021/06/06 11:37:39;;;;;;;32.15;19.33;;;15.90;91.90;;;;;;5035523;28;20140;-53
2021/06/06 11:40:26;;;;;;;35.03;20.08;;;15.90;92.00;;;;;;5017985;28;20047;-52
2021/06/06 11:42:59;;;;;;;30.85;18.60;;;15.90;92.00;;;;;;5039793;28;20091;-51
2021/06/06 11:45:42;;;;;;;29.20;19.67;;;15.90;91.90;;;;;;5041987;28;20045;-50
2021/06/06 11:48:37;;;;;;;30.52;17.73;;;16.00;92.00;;;;;;5012963;28;20065;-55
2021/06/06 11:51:14;;;;;;;24.75;17.50;;;16.00;92.00;;;;;;5046419;28;20417;-52
2021/06/06 11:53:45;;;;;;;28.67;18.63;;;16.10;92.00;;;;;;5028419;28;20112;-48
2021/06/06 11:56:23;;;;;;;28.38;18.15;;;16.10;91.80;;;;;;5043581;28;20052;-53
2021/06/06 11:59:06;;;;;;;32.13;21.20;;;16.20;91.80;;;;;;5048033;28;20174;-52
2021/06/06 12:01:44;;;;;;;32.03;19.77;;;16.20;92.00;;;;;;5025107;28;20053;-49
2021/06/06 12:04:11;;;;;;;30.05;19.27;;;16.10;92.00;;;;;;5048693;28;20488;-52
2021/06/06 12:06:41;;;;;;;33.97;19.15;;;16.20;91.90;;;;;;5047820;28;20048;-52
2021/06/06 12:09:35;;;;;;;31.02;19.48;;;16.10;92.00;;;;;;5048957;28;20043;-49
2021/06/06 12:12:23;;;;;;;30.83;19.90;;;16.10;92.10;;;;;;5035653;28;20065;-49
2021/06/06 12:15:09;;;;;;;33.58;20.83;;;16.10;92.10;;;;;;5015464;28;20515;-50
2021/06/06 12:17:37;;;;;;;36.95;20.80;;;16.10;92.00;;;;;;5006082;28;20045;-54
2021/06/06 12:20:10;;;;;;;32.78;20.95;;;16.10;92.10;;;;;;5035062;28;20578;-52
2021/06/06 12:22:38;;;;;;;36.33;20.48;;;16.10;92.10;;;;;;5047521;28;20120;-50
2021/06/06 12:25:16;;;;;;;37.67;19.80;;;16.10;92.30;;;;;;5044646;28;20112;-51
2021/06/06 12:27:53;;;;;;;31.92;19.58;;;16.10;92.30;;;;;;5008303;28;20075;-51
2021/06/06 12:30:19;;;;;;;27.45;18.60;;;16.10;92.20;;;;;;5021242;28;20044;-50
2021/06/06 12:33:00;;;;;;;28.40;17.95;;;16.10;92.30;;;;;;5043830;28;20045;-50
2021/06/06 12:35:31;;;;;;;30.70;19.45;;;16.10;92.20;;;;;;5037776;28;20042;-52
2021/06/06 12:38:01;;;;;;;29.10;18.02;;;16.10;92.30;;;;;;5027905;28;20053;-49
2021/06/06 12:40:33;;;;;;;29.55;18.08;;;16.10;92.20;;;;;;5037103;28;20049;-51
2021/06/06 12:43:03;;;;;;;29.45;18.70;;;16.10;92.20;;;;;;5047590;28;20057;-56
2021/06/06 12:45:31;;;;;;;29.58;19.67;;;16.10;92.20;;;;;;5048451;28;20485;-54
2021/06/06 12:48:11;;;;;;;27.60;18.88;;;16.20;92.20;;;;;;5044875;28;20045;-54
2021/06/06 12:50:44;;;;;;;28.55;18.25;;;16.20;92.20;;;;;;5051702;28;20047;-55
2021/06/06 12:53:33;;;;;;;30.63;18.38;;;16.20;92.20;;;;;;5040897;28;20556;-55